sensor_id;sensor_type;location;lat;lon;timestamp;temperature;humidity
25346;DHT22;13300;51.032;3.710;2023-04-12T00:01:35;8.80;99.90
25346;DHT22;13300;51.032;3.710;2023-04-12T00:04:01;8.80;99.90
25346;DHT22;13300;51.032;3.710;2023-04-12T00:06:31;8.80;99.90
25346;DHT22;13300;51.032;3.710;2023-04-12T00:09:01;8.80;99.90
25346;DHT22;13300;51.032;3.710;2023-04-12T00:11:29;8.80;99.90
25346;DHT22;13300;51.032;3.710;2023-04-12T00:13:56;8.80;99.90
25346;DHT22;13300;51.032;3.710;2023-04-12T00:16:22;8.80;99.90
25346;DHT22;13300;51.032;3.710;2023-04-12T00:18:48;8.80;99.90
25346;DHT22;13300;51.032;3.710;2023-04-12T00:21:16;8.80;99.90
25346;DHT22;13300;51.032;3.710;2023-04-12T00:23:45;8.80;99.90
25346;DHT22;13300;51.032;3.710;2023-04-12T00:26:12;8.80;99.90
25346;DHT22;13300;51.032;3.710;2023-04-12T00:28:38;8.80;99.90
25346;DHT22;13300;51.032;3.710;2023-04-12T00:31:04;8.70;99.90
25346;DHT22;13300;51.032;3.710;2023-04-12T00:33:30;8.80;99.90
25346;DHT22;13300;51.032;3.710;2023-04-12T00:35:56;8.80;99.90
25346;DHT22;13300;51.032;3.710;2023-04-12T00:38:21;8.70;99.90
25346;DHT22;13300;51.032;3.710;2023-04-12T00:40:47;8.80;99.90
25346;DHT22;13300;51.032;3.710;2023-04-12T00:43:13;8.80;99.90
25346;DHT22;13300;51.032;3.710;2023-04-12T00:45:44;8.80;99.90
25346;DHT22;13300;51.032;3.710;2023-04-12T00:48:10;8.80;99.90
25346;DHT22;13300;51.032;3.710;2023-04-12T00:50:36;8.90;99.90
25346;DHT22;13300;51.032;3.710;2023-04-12T00:53:02;8.80;99.90
25346;DHT22;13300;51.032;3.710;2023-04-12T00:55:28;8.80;99.90
25346;DHT22;13300;51.032;3.710;2023-04-12T00:57:55;8.80;99.90
25346;DHT22;13300;51.032;3.710;2023-04-12T01:00:23;8.90;99.90
25346;DHT22;13300;51.032;3.710;2023-04-12T01:02:49;8.90;99.90
25346;DHT22;13300;51.032;3.710;2023-04-12T01:05:17;8.80;99.90
25346;DHT22;13300;51.032;3.710;2023-04-12T01:08:14;8.80;99.90
25346;DHT22;13300;51.032;3.710;2023-04-12T01:15:59;8.80;99.90
25346;DHT22;13300;51.032;3.710;2023-04-12T01:18:27;8.80;99.90
25346;DHT22;13300;51.032;3.710;2023-04-12T01:21:15;8.90;99.90
25346;DHT22;13300;51.032;3.710;2023-04-12T01:27:15;8.90;99.90
25346;DHT22;13300;51.032;3.710;2023-04-12T01:29:44;8.90;99.90
25346;DHT22;13300;51.032;3.710;2023-04-12T01:32:14;8.90;99.90
25346;DHT22;13300;51.032;3.710;2023-04-12T01:34:40;9.00;99.90
25346;DHT22;13300;51.032;3.710;2023-04-12T01:37:06;9.00;99.90
25346;DHT22;13300;51.032;3.710;2023-04-12T01:39:34;9.00;99.90
25346;DHT22;13300;51.032;3.710;2023-04-12T01:41:59;9.00;99.90
25346;DHT22;13300;51.032;3.710;2023-04-12T01:44:25;9.00;99.90
25346;DHT22;13300;51.032;3.710;2023-04-12T01:46:51;9.00;99.90
25346;DHT22;13300;51.032;3.710;2023-04-12T01:49:18;9.00;99.90
25346;DHT22;13300;51.032;3.710;2023-04-12T01:51:51;9.00;99.90
25346;DHT22;13300;51.032;3.710;2023-04-12T01:54:32;9.00;99.90
25346;DHT22;13300;51.032;3.710;2023-04-12T01:57:03;9.10;99.90
25346;DHT22;13300;51.032;3.710;2023-04-12T01:59:38;9.10;99.90
25346;DHT22;13300;51.032;3.710;2023-04-12T02:02:04;9.10;99.90
25346;DHT22;13300;51.032;3.710;2023-04-12T02:04:31;9.10;99.90
25346;DHT22;13300;51.032;3.710;2023-04-12T02:06:57;9.10;99.90
25346;DHT22;13300;51.032;3.710;2023-04-12T02:09:23;9.10;99.90
25346;DHT22;13300;51.032;3.710;2023-04-12T02:11:49;9.20;99.90
25346;DHT22;13300;51.032;3.710;2023-04-12T02:14:15;9.10;99.90
25346;DHT22;13300;51.032;3.710;2023-04-12T02:16:41;9.10;99.90
25346;DHT22;13300;51.032;3.710;2023-04-12T02:19:09;9.20;99.90
25346;DHT22;13300;51.032;3.710;2023-04-12T02:21:45;9.20;99.90
25346;DHT22;13300;51.032;3.710;2023-04-12T02:24:11;9.20;99.90
25346;DHT22;13300;51.032;3.710;2023-04-12T02:26:38;9.20;99.90
25346;DHT22;13300;51.032;3.710;2023-04-12T02:29:05;9.30;99.90
25346;DHT22;13300;51.032;3.710;2023-04-12T02:31:32;9.30;99.90
25346;DHT22;13300;51.032;3.710;2023-04-12T02:34:00;9.30;99.90
25346;DHT22;13300;51.032;3.710;2023-04-12T02:36:25;9.30;99.90
25346;DHT22;13300;51.032;3.710;2023-04-12T02:38:51;9.30;99.90
25346;DHT22;13300;51.032;3.710;2023-04-12T02:41:20;9.30;99.90
25346;DHT22;13300;51.032;3.710;2023-04-12T02:43:47;9.30;99.90
25346;DHT22;13300;51.032;3.710;2023-04-12T02:46:21;9.30;99.90
25346;DHT22;13300;51.032;3.710;2023-04-12T02:48:48;9.40;99.90
25346;DHT22;13300;51.032;3.710;2023-04-12T02:51:14;9.40;99.90
25346;DHT22;13300;51.032;3.710;2023-04-12T02:53:40;9.40;99.90
25346;DHT22;13300;51.032;3.710;2023-04-12T02:56:06;9.50;99.90
25346;DHT22;13300;51.032;3.710;2023-04-12T02:58:33;9.50;99.90
25346;DHT22;13300;51.032;3.710;2023-04-12T03:01:02;9.60;99.90
25346;DHT22;13300;51.032;3.710;2023-04-12T03:03:33;9.50;99.90
25346;DHT22;13300;51.032;3.710;2023-04-12T03:05:59;9.50;99.90
25346;DHT22;13300;51.032;3.710;2023-04-12T03:08:25;9.40;99.90
25346;DHT22;13300;51.032;3.710;2023-04-12T03:10:50;9.50;99.90
25346;DHT22;13300;51.032;3.710;2023-04-12T03:13:16;9.50;99.90
25346;DHT22;13300;51.032;3.710;2023-04-12T03:15:42;9.40;99.90
25346;DHT22;13300;51.032;3.710;2023-04-12T03:18:11;9.50;99.90
25346;DHT22;13300;51.032;3.710;2023-04-12T03:20:37;9.50;99.90
25346;DHT22;13300;51.032;3.710;2023-04-12T03:23:08;9.50;99.90
25346;DHT22;13300;51.032;3.710;2023-04-12T03:25:33;9.60;99.90
25346;DHT22;13300;51.032;3.710;2023-04-12T03:28:01;9.60;99.90
25346;DHT22;13300;51.032;3.710;2023-04-12T03:30:27;9.50;99.90
25346;DHT22;13300;51.032;3.710;2023-04-12T03:32:53;9.50;99.90
25346;DHT22;13300;51.032;3.710;2023-04-12T03:35:19;9.50;99.90
25346;DHT22;13300;51.032;3.710;2023-04-12T03:37:44;9.60;99.90
25346;DHT22;13300;51.032;3.710;2023-04-12T03:40:10;9.50;99.90
25346;DHT22;13300;51.032;3.710;2023-04-12T03:42:36;9.60;99.90
25346;DHT22;13300;51.032;3.710;2023-04-12T03:45:02;9.60;99.90
25346;DHT22;13300;51.032;3.710;2023-04-12T03:47:28;9.70;99.90
25346;DHT22;13300;51.032;3.710;2023-04-12T03:50:02;9.70;99.90
25346;DHT22;13300;51.032;3.710;2023-04-12T03:52:31;9.70;99.90
25346;DHT22;13300;51.032;3.710;2023-04-12T03:54:57;9.80;99.90
25346;DHT22;13300;51.032;3.710;2023-04-12T03:57:22;9.80;99.90
25346;DHT22;13300;51.032;3.710;2023-04-12T03:59:48;9.70;99.90
25346;DHT22;13300;51.032;3.710;2023-04-12T04:02:14;9.60;99.90
25346;DHT22;13300;51.032;3.710;2023-04-12T04:04:40;9.60;99.90
25346;DHT22;13300;51.032;3.710;2023-04-12T04:07:06;9.60;99.90
25346;DHT22;13300;51.032;3.710;2023-04-12T04:09:32;9.70;99.90
25346;DHT22;13300;51.032;3.710;2023-04-12T04:11:58;9.70;99.90
25346;DHT22;13300;51.032;3.710;2023-04-12T04:14:25;9.70;99.90
25346;DHT22;13300;51.032;3.710;2023-04-12T04:16:52;9.80;99.90
25346;DHT22;13300;51.032;3.710;2023-04-12T04:19:18;9.80;99.90
25346;DHT22;13300;51.032;3.710;2023-04-12T04:21:44;9.90;99.90
25346;DHT22;13300;51.032;3.710;2023-04-12T04:24:09;9.90;99.90
25346;DHT22;13300;51.032;3.710;2023-04-12T04:26:36;10.00;99.90
25346;DHT22;13300;51.032;3.710;2023-04-12T04:29:03;10.00;99.90
25346;DHT22;13300;51.032;3.710;2023-04-12T04:31:29;10.00;99.90
25346;DHT22;13300;51.032;3.710;2023-04-12T04:34:03;10.00;99.90
25346;DHT22;13300;51.032;3.710;2023-04-12T04:36:32;10.10;99.90
25346;DHT22;13300;51.032;3.710;2023-04-12T04:38:58;10.10;99.90
25346;DHT22;13300;51.032;3.710;2023-04-12T04:41:24;10.10;99.90
25346;DHT22;13300;51.032;3.710;2023-04-12T04:43:50;10.10;99.90
25346;DHT22;13300;51.032;3.710;2023-04-12T04:46:16;10.10;99.90
25346;DHT22;13300;51.032;3.710;2023-04-12T04:48:46;10.10;99.90
25346;DHT22;13300;51.032;3.710;2023-04-12T04:51:12;10.10;99.90
25346;DHT22;13300;51.032;3.710;2023-04-12T04:53:40;10.10;99.90
25346;DHT22;13300;51.032;3.710;2023-04-12T04:56:06;10.00;99.90
25346;DHT22;13300;51.032;3.710;2023-04-12T04:58:32;9.90;99.90
25346;DHT22;13300;51.032;3.710;2023-04-12T05:00:58;9.90;99.90
25346;DHT22;13300;51.032;3.710;2023-04-12T05:03:24;10.00;99.90
25346;DHT22;13300;51.032;3.710;2023-04-12T05:05:53;9.90;99.90
25346;DHT22;13300;51.032;3.710;2023-04-12T05:08:20;9.90;99.90
25346;DHT22;13300;51.032;3.710;2023-04-12T05:10:50;9.90;99.90
25346;DHT22;13300;51.032;3.710;2023-04-12T05:13:17;9.80;99.90
25346;DHT22;13300;51.032;3.710;2023-04-12T05:15:43;9.80;99.90
25346;DHT22;13300;51.032;3.710;2023-04-12T05:18:08;9.80;99.90
25346;DHT22;13300;51.032;3.710;2023-04-12T05:20:36;9.70;99.90
25346;DHT22;13300;51.032;3.710;2023-04-12T05:23:03;9.80;99.90
25346;DHT22;13300;51.032;3.710;2023-04-12T05:25:28;9.80;99.90
25346;DHT22;13300;51.032;3.710;2023-04-12T05:27:54;9.80;99.90
25346;DHT22;13300;51.032;3.710;2023-04-12T05:30:20;9.70;99.90
25346;DHT22;13300;51.032;3.710;2023-04-12T05:32:45;9.70;99.90
25346;DHT22;13300;51.032;3.710;2023-04-12T05:35:11;9.60;99.90
25346;DHT22;13300;51.032;3.710;2023-04-12T05:37:37;9.60;99.90
25346;DHT22;13300;51.032;3.710;2023-04-12T05:40:04;9.50;99.90
25346;DHT22;13300;51.032;3.710;2023-04-12T05:42:34;9.50;99.90
25346;DHT22;13300;51.032;3.710;2023-04-12T05:45:02;9.50;99.90
25346;DHT22;13300;51.032;3.710;2023-04-12T05:47:28;9.60;99.90
25346;DHT22;13300;51.032;3.710;2023-04-12T05:49:53;9.60;99.90
25346;DHT22;13300;51.032;3.710;2023-04-12T05:52:20;9.60;99.90
25346;DHT22;13300;51.032;3.710;2023-04-12T05:54:46;9.50;99.90
25346;DHT22;13300;51.032;3.710;2023-04-12T05:57:12;9.50;99.90
25346;DHT22;13300;51.032;3.710;2023-04-12T05:59:51;9.50;99.90
25346;DHT22;13300;51.032;3.710;2023-04-12T06:02:16;9.60;99.90
25346;DHT22;13300;51.032;3.710;2023-04-12T06:04:43;9.70;99.90
25346;DHT22;13300;51.032;3.710;2023-04-12T06:07:08;9.60;99.90
25346;DHT22;13300;51.032;3.710;2023-04-12T06:09:34;9.70;99.90
25346;DHT22;13300;51.032;3.710;2023-04-12T06:12:00;9.70;99.90
25346;DHT22;13300;51.032;3.710;2023-04-12T06:14:27;9.80;99.90
25346;DHT22;13300;51.032;3.710;2023-04-12T06:16:52;9.70;99.90
25346;DHT22;13300;51.032;3.710;2023-04-12T06:19:18;9.80;99.90
25346;DHT22;13300;51.032;3.710;2023-04-12T06:21:44;9.80;99.90
25346;DHT22;13300;51.032;3.710;2023-04-12T06:24:10;9.90;99.90
25346;DHT22;13300;51.032;3.710;2023-04-12T06:26:36;10.10;99.90
25346;DHT22;13300;51.032;3.710;2023-04-12T06:29:02;10.30;99.90
25346;DHT22;13300;51.032;3.710;2023-04-12T06:31:27;10.50;99.90
25346;DHT22;13300;51.032;3.710;2023-04-12T06:33:53;10.80;99.90
25346;DHT22;13300;51.032;3.710;2023-04-12T06:36:21;10.90;99.90
25346;DHT22;13300;51.032;3.710;2023-04-12T06:38:47;11.10;99.90
25346;DHT22;13300;51.032;3.710;2023-04-12T06:41:15;11.30;99.90
25346;DHT22;13300;51.032;3.710;2023-04-12T06:43:40;11.00;99.90
25346;DHT22;13300;51.032;3.710;2023-04-12T06:46:08;11.10;99.90
25346;DHT22;13300;51.032;3.710;2023-04-12T06:48:33;11.20;99.90
25346;DHT22;13300;51.032;3.710;2023-04-12T06:50:59;11.40;99.90
25346;DHT22;13300;51.032;3.710;2023-04-12T06:53:26;11.60;99.90
25346;DHT22;13300;51.032;3.710;2023-04-12T06:56:03;11.80;99.90
25346;DHT22;13300;51.032;3.710;2023-04-12T06:58:29;11.70;99.90
25346;DHT22;13300;51.032;3.710;2023-04-12T07:01:06;12.30;99.90
25346;DHT22;13300;51.032;3.710;2023-04-12T07:03:36;13.40;99.90
25346;DHT22;13300;51.032;3.710;2023-04-12T07:06:04;13.60;99.90
25346;DHT22;13300;51.032;3.710;2023-04-12T07:08:50;14.00;99.90
25346;DHT22;13300;51.032;3.710;2023-04-12T07:11:19;14.10;99.90
25346;DHT22;13300;51.032;3.710;2023-04-12T07:13:47;13.90;99.90
25346;DHT22;13300;51.032;3.710;2023-04-12T07:16:12;13.50;99.90
25346;DHT22;13300;51.032;3.710;2023-04-12T07:18:38;12.90;99.90
25346;DHT22;13300;51.032;3.710;2023-04-12T07:21:09;12.30;99.90
25346;DHT22;13300;51.032;3.710;2023-04-12T07:23:41;12.10;99.90
25346;DHT22;13300;51.032;3.710;2023-04-12T07:26:07;11.90;99.90
25346;DHT22;13300;51.032;3.710;2023-04-12T07:28:32;11.80;99.90
25346;DHT22;13300;51.032;3.710;2023-04-12T07:31:00;11.80;99.90
25346;DHT22;13300;51.032;3.710;2023-04-12T07:33:28;11.70;99.90
25346;DHT22;13300;51.032;3.710;2023-04-12T07:35:57;11.80;99.90
25346;DHT22;13300;51.032;3.710;2023-04-12T07:38:22;11.40;99.90
25346;DHT22;13300;51.032;3.710;2023-04-12T07:40:48;11.30;99.90
25346;DHT22;13300;51.032;3.710;2023-04-12T07:43:15;11.20;99.90
25346;DHT22;13300;51.032;3.710;2023-04-12T07:45:41;11.40;99.90
25346;DHT22;13300;51.032;3.710;2023-04-12T07:48:06;11.40;99.90
25346;DHT22;13300;51.032;3.710;2023-04-12T07:50:33;11.40;99.90
25346;DHT22;13300;51.032;3.710;2023-04-12T07:53:19;11.60;99.90
25346;DHT22;13300;51.032;3.710;2023-04-12T07:55:46;12.00;99.90
25346;DHT22;13300;51.032;3.710;2023-04-12T07:58:12;12.10;99.90
25346;DHT22;13300;51.032;3.710;2023-04-12T08:00:37;12.20;99.90
25346;DHT22;13300;51.032;3.710;2023-04-12T08:03:04;12.30;99.90
25346;DHT22;13300;51.032;3.710;2023-04-12T08:05:31;12.40;99.90
25346;DHT22;13300;51.032;3.710;2023-04-12T08:07:57;12.70;99.90
25346;DHT22;13300;51.032;3.710;2023-04-12T08:10:23;12.80;99.90
25346;DHT22;13300;51.032;3.710;2023-04-12T08:12:48;12.90;99.90
25346;DHT22;13300;51.032;3.710;2023-04-12T08:15:14;13.20;99.90
25346;DHT22;13300;51.032;3.710;2023-04-12T08:17:40;13.50;99.90
25346;DHT22;13300;51.032;3.710;2023-04-12T08:20:08;13.50;99.90
25346;DHT22;13300;51.032;3.710;2023-04-12T08:22:34;13.40;99.90
25346;DHT22;13300;51.032;3.710;2023-04-12T08:25:00;13.50;99.90
25346;DHT22;13300;51.032;3.710;2023-04-12T08:27:28;13.40;99.90
25346;DHT22;13300;51.032;3.710;2023-04-12T08:29:53;13.30;99.90
25346;DHT22;13300;51.032;3.710;2023-04-12T08:32:21;13.30;99.90
25346;DHT22;13300;51.032;3.710;2023-04-12T08:34:47;13.60;99.90
25346;DHT22;13300;51.032;3.710;2023-04-12T08:37:13;13.70;99.90
25346;DHT22;13300;51.032;3.710;2023-04-12T08:39:38;14.60;99.90
25346;DHT22;13300;51.032;3.710;2023-04-12T08:42:05;15.80;99.90
25346;DHT22;13300;51.032;3.710;2023-04-12T08:47:01;16.30;99.90
25346;DHT22;13300;51.032;3.710;2023-04-12T08:49:30;15.70;99.90
25346;DHT22;13300;51.032;3.710;2023-04-12T08:52:05;15.40;99.90
25346;DHT22;13300;51.032;3.710;2023-04-12T08:54:34;15.40;99.90
25346;DHT22;13300;51.032;3.710;2023-04-12T08:57:05;15.20;99.90
25346;DHT22;13300;51.032;3.710;2023-04-12T08:59:33;15.20;99.90
25346;DHT22;13300;51.032;3.710;2023-04-12T09:02:00;15.10;99.90
25346;DHT22;13300;51.032;3.710;2023-04-12T09:04:26;14.90;99.90
25346;DHT22;13300;51.032;3.710;2023-04-12T09:06:52;14.60;99.90
25346;DHT22;13300;51.032;3.710;2023-04-12T09:09:17;14.80;99.90
25346;DHT22;13300;51.032;3.710;2023-04-12T09:11:43;15.10;99.90
25346;DHT22;13300;51.032;3.710;2023-04-12T09:14:23;15.80;99.90
25346;DHT22;13300;51.032;3.710;2023-04-12T09:16:49;16.20;99.90
25346;DHT22;13300;51.032;3.710;2023-04-12T09:19:15;15.70;99.90
25346;DHT22;13300;51.032;3.710;2023-04-12T09:21:57;15.10;99.90
25346;DHT22;13300;51.032;3.710;2023-04-12T09:24:28;14.70;99.90
25346;DHT22;13300;51.032;3.710;2023-04-12T09:27:05;14.20;99.90
25346;DHT22;13300;51.032;3.710;2023-04-12T09:29:33;14.60;99.90
25346;DHT22;13300;51.032;3.710;2023-04-12T09:32:06;15.00;99.90
25346;DHT22;13300;51.032;3.710;2023-04-12T09:34:36;14.90;99.90
25346;DHT22;13300;51.032;3.710;2023-04-12T09:37:15;14.50;99.90
25346;DHT22;13300;51.032;3.710;2023-04-12T09:39:42;13.90;99.90
25346;DHT22;13300;51.032;3.710;2023-04-12T09:42:11;13.80;99.90
25346;DHT22;13300;51.032;3.710;2023-04-12T09:44:39;13.80;99.90
25346;DHT22;13300;51.032;3.710;2023-04-12T09:47:05;14.00;99.90
25346;DHT22;13300;51.032;3.710;2023-04-12T09:49:39;14.00;99.90
25346;DHT22;13300;51.032;3.710;2023-04-12T09:52:09;14.10;99.90
25346;DHT22;13300;51.032;3.710;2023-04-12T09:55:02;15.20;99.90
25346;DHT22;13300;51.032;3.710;2023-04-12T09:57:30;16.80;99.90
25346;DHT22;13300;51.032;3.710;2023-04-12T09:59:59;17.60;99.90
25346;DHT22;13300;51.032;3.710;2023-04-12T10:02:29;17.50;99.90
25346;DHT22;13300;51.032;3.710;2023-04-12T10:04:55;17.60;99.90
25346;DHT22;13300;51.032;3.710;2023-04-12T10:07:21;17.00;99.90
25346;DHT22;13300;51.032;3.710;2023-04-12T10:09:47;16.30;99.90
25346;DHT22;13300;51.032;3.710;2023-04-12T10:12:13;15.70;99.90
25346;DHT22;13300;51.032;3.710;2023-04-12T10:14:41;14.90;99.90
25346;DHT22;13300;51.032;3.710;2023-04-12T10:17:08;14.30;99.90
25346;DHT22;13300;51.032;3.710;2023-04-12T10:19:37;14.30;99.90
25346;DHT22;13300;51.032;3.710;2023-04-12T10:22:06;15.40;99.90
25346;DHT22;13300;51.032;3.710;2023-04-12T10:24:32;17.20;99.90
25346;DHT22;13300;51.032;3.710;2023-04-12T10:26:58;18.80;99.90
25346;DHT22;13300;51.032;3.710;2023-04-12T10:29:29;19.20;99.90
25346;DHT22;13300;51.032;3.710;2023-04-12T10:32:19;18.60;99.90
25346;DHT22;13300;51.032;3.710;2023-04-12T10:34:53;18.70;99.90
25346;DHT22;13300;51.032;3.710;2023-04-12T10:37:19;18.00;99.90
25346;DHT22;13300;51.032;3.710;2023-04-12T10:39:54;17.60;99.90
25346;DHT22;13300;51.032;3.710;2023-04-12T10:42:39;16.90;99.90
25346;DHT22;13300;51.032;3.710;2023-04-12T10:50:27;13.90;99.90
25346;DHT22;13300;51.032;3.710;2023-04-12T10:55:43;12.20;99.90
25346;DHT22;13300;51.032;3.710;2023-04-12T11:01:17;13.00;99.90
25346;DHT22;13300;51.032;3.710;2023-04-12T11:06:58;13.20;99.90
25346;DHT22;13300;51.032;3.710;2023-04-12T11:09:43;13.00;99.90
25346;DHT22;13300;51.032;3.710;2023-04-12T11:12:14;12.70;99.90
25346;DHT22;13300;51.032;3.710;2023-04-12T11:14:47;12.70;99.90
25346;DHT22;13300;51.032;3.710;2023-04-12T11:19:54;14.90;99.90
25346;DHT22;13300;51.032;3.710;2023-04-12T11:22:22;16.00;99.90
25346;DHT22;13300;51.032;3.710;2023-04-12T11:25:00;17.20;99.90
25346;DHT22;13300;51.032;3.710;2023-04-12T11:27:35;18.50;99.90
25346;DHT22;13300;51.032;3.710;2023-04-12T11:30:04;19.40;99.90
25346;DHT22;13300;51.032;3.710;2023-04-12T11:32:30;20.20;99.90
25346;DHT22;13300;51.032;3.710;2023-04-12T11:34:58;20.80;99.90
25346;DHT22;13300;51.032;3.710;2023-04-12T11:37:24;19.80;99.90
25346;DHT22;13300;51.032;3.710;2023-04-12T11:39:52;19.50;99.90
25346;DHT22;13300;51.032;3.710;2023-04-12T11:42:23;19.30;99.90
25346;DHT22;13300;51.032;3.710;2023-04-12T11:44:49;18.20;99.90
25346;DHT22;13300;51.032;3.710;2023-04-12T11:47:19;17.60;99.90
25346;DHT22;13300;51.032;3.710;2023-04-12T11:49:51;18.50;99.90
25346;DHT22;13300;51.032;3.710;2023-04-12T11:52:18;19.60;99.90
25346;DHT22;13300;51.032;3.710;2023-04-12T11:54:45;20.50;99.90
25346;DHT22;13300;51.032;3.710;2023-04-12T11:57:16;20.80;99.90
25346;DHT22;13300;51.032;3.710;2023-04-12T11:59:44;20.70;99.90
25346;DHT22;13300;51.032;3.710;2023-04-12T12:02:10;21.10;99.90
25346;DHT22;13300;51.032;3.710;2023-04-12T12:04:36;21.60;99.90
25346;DHT22;13300;51.032;3.710;2023-04-12T12:07:03;21.60;99.20
25346;DHT22;13300;51.032;3.710;2023-04-12T12:09:31;20.50;97.90
25346;DHT22;13300;51.032;3.710;2023-04-12T12:11:57;19.90;99.90
25346;DHT22;13300;51.032;3.710;2023-04-12T12:14:26;19.10;99.90
25346;DHT22;13300;51.032;3.710;2023-04-12T12:16:57;17.70;99.90
25346;DHT22;13300;51.032;3.710;2023-04-12T12:19:27;16.70;99.90
25346;DHT22;13300;51.032;3.710;2023-04-12T12:22:08;15.80;99.90
25346;DHT22;13300;51.032;3.710;2023-04-12T12:24:34;14.90;99.90
25346;DHT22;13300;51.032;3.710;2023-04-12T12:27:01;15.40;99.90
25346;DHT22;13300;51.032;3.710;2023-04-12T12:29:34;16.60;99.90
25346;DHT22;13300;51.032;3.710;2023-04-12T12:32:01;18.00;99.90
25346;DHT22;13300;51.032;3.710;2023-04-12T12:34:31;18.60;99.90
25346;DHT22;13300;51.032;3.710;2023-04-12T12:36:58;17.20;99.90
25346;DHT22;13300;51.032;3.710;2023-04-12T12:39:25;15.70;99.90
25346;DHT22;13300;51.032;3.710;2023-04-12T12:41:54;15.50;99.90
25346;DHT22;13300;51.032;3.710;2023-04-12T12:44:25;16.40;99.90
25346;DHT22;13300;51.032;3.710;2023-04-12T12:46:51;17.10;99.90
25346;DHT22;13300;51.032;3.710;2023-04-12T12:49:17;16.80;99.90
25346;DHT22;13300;51.032;3.710;2023-04-12T12:51:43;17.40;99.90
25346;DHT22;13300;51.032;3.710;2023-04-12T12:54:08;18.30;99.90
25346;DHT22;13300;51.032;3.710;2023-04-12T12:56:34;18.80;99.90
25346;DHT22;13300;51.032;3.710;2023-04-12T12:59:00;18.80;99.90
25346;DHT22;13300;51.032;3.710;2023-04-12T13:01:29;19.80;99.90
25346;DHT22;13300;51.032;3.710;2023-04-12T13:03:54;20.60;99.90
25346;DHT22;13300;51.032;3.710;2023-04-12T13:06:22;20.60;99.90
25346;DHT22;13300;51.032;3.710;2023-04-12T13:08:50;20.30;99.90
25346;DHT22;13300;51.032;3.710;2023-04-12T13:11:16;20.70;99.90
25346;DHT22;13300;51.032;3.710;2023-04-12T13:13:42;20.50;99.90
25346;DHT22;13300;51.032;3.710;2023-04-12T13:16:08;20.30;99.90
25346;DHT22;13300;51.032;3.710;2023-04-12T13:18:33;19.80;99.90
25346;DHT22;13300;51.032;3.710;2023-04-12T13:21:00;19.30;99.90
25346;DHT22;13300;51.032;3.710;2023-04-12T13:23:26;18.50;99.90
25346;DHT22;13300;51.032;3.710;2023-04-12T13:25:54;17.70;99.90
25346;DHT22;13300;51.032;3.710;2023-04-12T13:28:20;17.00;99.90
25346;DHT22;13300;51.032;3.710;2023-04-12T13:30:46;16.80;99.90
25346;DHT22;13300;51.032;3.710;2023-04-12T13:33:13;16.50;99.90
25346;DHT22;13300;51.032;3.710;2023-04-12T13:35:41;16.00;99.90
25346;DHT22;13300;51.032;3.710;2023-04-12T13:38:07;15.90;99.90
25346;DHT22;13300;51.032;3.710;2023-04-12T13:40:32;16.20;99.90
25346;DHT22;13300;51.032;3.710;2023-04-12T13:42:58;16.80;99.90
25346;DHT22;13300;51.032;3.710;2023-04-12T13:45:24;17.10;99.90
25346;DHT22;13300;51.032;3.710;2023-04-12T13:47:51;17.70;99.90
25346;DHT22;13300;51.032;3.710;2023-04-12T13:50:17;18.30;99.90
25346;DHT22;13300;51.032;3.710;2023-04-12T13:52:51;19.00;99.90
25346;DHT22;13300;51.032;3.710;2023-04-12T13:55:17;19.20;99.90
25346;DHT22;13300;51.032;3.710;2023-04-12T13:57:43;19.10;99.90
25346;DHT22;13300;51.032;3.710;2023-04-12T14:00:21;19.30;99.90
25346;DHT22;13300;51.032;3.710;2023-04-12T14:02:49;19.50;99.90
25346;DHT22;13300;51.032;3.710;2023-04-12T14:05:17;19.20;97.30
25346;DHT22;13300;51.032;3.710;2023-04-12T14:07:43;19.00;95.90
25346;DHT22;13300;51.032;3.710;2023-04-12T14:10:12;18.80;95.60
25346;DHT22;13300;51.032;3.710;2023-04-12T14:12:43;18.50;97.10
25346;DHT22;13300;51.032;3.710;2023-04-12T14:15:14;18.60;95.10
25346;DHT22;13300;51.032;3.710;2023-04-12T14:17:40;18.10;94.90
25346;DHT22;13300;51.032;3.710;2023-04-12T14:20:09;17.60;96.10
25346;DHT22;13300;51.032;3.710;2023-04-12T14:22:35;17.40;98.00
25346;DHT22;13300;51.032;3.710;2023-04-12T14:25:08;17.80;97.40
25346;DHT22;13300;51.032;3.710;2023-04-12T14:27:34;18.10;96.00
25346;DHT22;13300;51.032;3.710;2023-04-12T14:30:00;18.20;96.40
25346;DHT22;13300;51.032;3.710;2023-04-12T14:32:32;17.80;96.60
25346;DHT22;13300;51.032;3.710;2023-04-12T14:34:58;17.80;97.00
25346;DHT22;13300;51.032;3.710;2023-04-12T14:37:26;17.80;97.80
25346;DHT22;13300;51.032;3.710;2023-04-12T14:39:52;17.90;97.60
25346;DHT22;13300;51.032;3.710;2023-04-12T14:42:18;18.00;96.50
25346;DHT22;13300;51.032;3.710;2023-04-12T14:44:49;17.90;95.70
25346;DHT22;13300;51.032;3.710;2023-04-12T14:47:21;17.20;95.80
25346;DHT22;13300;51.032;3.710;2023-04-12T14:49:47;17.70;96.10
25346;DHT22;13300;51.032;3.710;2023-04-12T14:52:13;18.20;96.10
25346;DHT22;13300;51.032;3.710;2023-04-12T14:54:38;17.90;94.70
25346;DHT22;13300;51.032;3.710;2023-04-12T14:57:06;17.80;95.70
25346;DHT22;13300;51.032;3.710;2023-04-12T14:59:35;17.90;96.90
25346;DHT22;13300;51.032;3.710;2023-04-12T15:02:01;18.50;94.80
25346;DHT22;13300;51.032;3.710;2023-04-12T15:04:27;18.20;94.80
25346;DHT22;13300;51.032;3.710;2023-04-12T15:06:52;18.30;95.00
25346;DHT22;13300;51.032;3.710;2023-04-12T15:09:28;18.30;94.20
25346;DHT22;13300;51.032;3.710;2023-04-12T15:11:55;18.40;93.60
25346;DHT22;13300;51.032;3.710;2023-04-12T15:14:25;17.50;91.80
25346;DHT22;13300;51.032;3.710;2023-04-12T15:16:51;17.40;91.70
25346;DHT22;13300;51.032;3.710;2023-04-12T15:19:21;17.30;91.30
25346;DHT22;13300;51.032;3.710;2023-04-12T15:21:53;17.30;92.50
25346;DHT22;13300;51.032;3.710;2023-04-12T15:24:24;17.50;91.60
25346;DHT22;13300;51.032;3.710;2023-04-12T15:26:51;17.10;91.30
25346;DHT22;13300;51.032;3.710;2023-04-12T15:29:26;16.50;92.60
25346;DHT22;13300;51.032;3.710;2023-04-12T15:31:58;16.70;92.70
25346;DHT22;13300;51.032;3.710;2023-04-12T15:34:44;16.80;92.30
25346;DHT22;13300;51.032;3.710;2023-04-12T15:37:37;16.40;92.40
25346;DHT22;13300;51.032;3.710;2023-04-12T15:40:07;15.70;92.90
25346;DHT22;13300;51.032;3.710;2023-04-12T15:43:19;15.90;93.80
25346;DHT22;13300;51.032;3.710;2023-04-12T15:45:52;16.20;93.80
25346;DHT22;13300;51.032;3.710;2023-04-12T15:48:26;16.90;93.40
25346;DHT22;13300;51.032;3.710;2023-04-12T15:51:13;17.50;92.80
25346;DHT22;13300;51.032;3.710;2023-04-12T15:53:42;17.60;92.40
25346;DHT22;13300;51.032;3.710;2023-04-12T15:56:16;17.60;91.70
25346;DHT22;13300;51.032;3.710;2023-04-12T15:58:56;17.40;92.20
25346;DHT22;13300;51.032;3.710;2023-04-12T16:01:23;17.20;91.40
25346;DHT22;13300;51.032;3.710;2023-04-12T16:03:57;16.50;92.00
25346;DHT22;13300;51.032;3.710;2023-04-12T16:10:18;15.20;95.20
25346;DHT22;13300;51.032;3.710;2023-04-12T16:12:54;14.80;96.00
25346;DHT22;13300;51.032;3.710;2023-04-12T16:15:31;14.40;96.50
25346;DHT22;13300;51.032;3.710;2023-04-12T16:18:14;14.20;97.20